Time;durP1;ratioP1;P1;durP2;ratioP2;P2;SDS_P1;SDS_P2;PMS_P1;PMS_P2;Temp;Humidity;BMP_temperature;BMP_pressure;BME280_temperature;BME280_humidity;BME280_pressure;Samples;Min_cycle;Max_cycle;Signal;HPM_P1;HPM_P2
2022/09/01 00:01:19;;;;;;;0.10;0.10;;;;;;;10.41;71.34;99035.47;6267163;22;19943;-69
2022/09/01 00:03:47;;;;;;;0.25;0.10;;;;;;;10.46;71.42;99040.06;6269388;22;20020;-69
2022/09/01 00:06:14;;;;;;;0.10;0.10;;;;;;;10.44;71.75;99029.41;6268438;22;20024;-69
2022/09/01 00:08:41;;;;;;;0.17;0.10;;;;;;;10.43;71.64;99027.78;6268480;22;20024;-69
2022/09/01 00:11:07;;;;;;;0.10;0.10;;;;;;;10.51;71.97;99037.25;6280644;22;20020;-70
2022/09/01 00:13:34;;;;;;;0.10;0.10;;;;;;;10.59;71.67;99039.31;6268982;22;20583;-69
2022/09/01 00:16:02;;;;;;;0.00;0.00;;;;;;;10.66;71.38;99028.03;6281392;22;20024;-69
2022/09/01 00:18:30;;;;;;;0.10;0.10;;;;;;;10.77;71.41;99036.91;6279707;22;20553;-69
2022/09/01 00:20:58;;;;;;;0.00;0.00;;;;;;;10.91;71.21;99031.53;6270116;22;20038;-69
2022/09/01 00:23:24;;;;;;;0.10;0.10;;;;;;;10.95;70.84;99024.34;6268823;22;20019;-70
2022/09/01 00:25:50;;;;;;;0.47;0.10;;;;;;;11.04;70.43;99043.63;6278674;22;20038;-70
2022/09/01 00:28:16;;;;;;;0.10;0.10;;;;;;;10.99;69.84;99047.25;6266595;22;20530;-70
2022/09/01 00:30:43;;;;;;;0.10;0.10;;;;;;;10.87;70.10;99050.44;6241878;22;20446;-70
2022/09/01 00:33:09;;;;;;;0.10;0.10;;;;;;;10.75;70.52;99047.31;6278721;22;20023;-70
2022/09/01 00:35:35;;;;;;;0.10;0.10;;;;;;;10.79;70.72;99051.13;6243093;22;20455;-70
2022/09/01 00:38:01;;;;;;;0.10;0.10;;;;;;;10.70;70.42;99053.69;6251516;22;20030;-70
2022/09/01 00:40:28;;;;;;;0.10;0.10;;;;;;;10.61;70.50;99039.03;6270836;22;20019;-69
2022/09/01 00:42:54;;;;;;;0.10;0.10;;;;;;;10.59;70.80;99044.00;6239293;22;20386;-69
2022/09/01 00:45:20;;;;;;;0.10;0.10;;;;;;;10.61;70.31;99044.50;6238050;22;20459;-69
2022/09/01 00:47:48;;;;;;;0.10;0.10;;;;;;;10.56;70.71;99039.91;6238369;22;20027;-69
2022/09/01 00:50:17;;;;;;;0.10;0.10;;;;;;;10.57;70.72;99060.69;6251670;22;20337;-69
2022/09/01 00:52:46;;;;;;;0.20;0.15;;;;;;;10.52;70.39;99044.34;6265199;22;20019;-69
2022/09/01 00:55:17;;;;;;;0.10;0.10;;;;;;;10.35;70.80;99039.31;6276768;22;20109;-69
2022/09/01 00:57:44;;;;;;;0.10;0.10;;;;;;;10.32;70.83;99028.97;6248725;22;20490;-69
2022/09/01 01:00:14;;;;;;;0.10;0.10;;;;;;;10.40;70.94;99042.00;6213154;22;20065;-69
2022/09/01 01:02:43;;;;;;;0.10;0.10;;;;;;;10.46;71.00;99040.88;6273679;22;20023;-69
2022/09/01 01:05:12;;;;;;;0.10;0.10;;;;;;;10.49;70.11;99047.69;6266281;22;20020;-69
2022/09/01 01:07:43;;;;;;;0.10;0.10;;;;;;;10.47;69.86;99047.97;6275372;22;20399;-69
2022/09/01 01:10:11;;;;;;;0.15;0.10;;;;;;;10.43;70.27;99052.38;6240667;22;20111;-72
2022/09/01 01:12:39;;;;;;;0.10;0.10;;;;;;;10.41;70.16;99057.34;6265008;22;20139;-73
2022/09/01 01:15:07;;;;;;;0.10;0.10;;;;;;;10.34;70.03;99043.16;6279083;22;20015;-73
2022/09/01 01:17:34;;;;;;;0.10;0.10;;;;;;;10.18;70.17;99045.28;6278223;22;20027;-73
2022/09/01 01:23:04;;;;;;;0.10;0.10;;;;;;;10.02;71.22;99045.44;6249422;22;20031;-74
2022/09/01 01:25:37;;;;;;;0.10;0.10;;;;;;;10.00;71.27;99047.66;6240088;22;20022;-73
2022/09/01 01:28:09;;;;;;;0.10;0.10;;;;;;;9.94;71.44;99037.88;6248893;22;20024;-73
2022/09/01 01:30:38;;;;;;;0.20;0.10;;;;;;;9.96;71.65;99032.94;6193057;22;20467;-72
2022/09/01 01:33:05;;;;;;;0.10;0.10;;;;;;;9.95;71.79;99039.50;6276219;22;20024;-73
2022/09/01 01:35:32;;;;;;;;;;;;;;;9.86;71.41;99014.75;6250927;22;20026;-73
2022/09/01 01:38:00;;;;;;;0.00;0.00;;;;;;;10.04;71.36;99036.94;6236884;22;19919;-73
2022/09/01 01:40:28;;;;;;;0.00;0.00;;;;;;;9.98;71.36;99033.44;6240874;22;20024;-73
2022/09/01 01:42:56;;;;;;;0.00;0.00;;;;;;;10.01;71.35;99035.63;6241934;22;20051;-74
2022/09/01 01:45:24;;;;;;;0.10;0.10;;;;;;;9.95;71.56;99033.25;6239157;22;20111;-73
2022/09/01 01:47:52;;;;;;;0.00;0.00;;;;;;;9.92;71.50;99027.25;6278483;22;20118;-73
2022/09/01 01:50:21;;;;;;;0.10;0.10;;;;;;;9.92;71.19;99031.88;6279726;22;20027;-73
2022/09/01 01:52:47;;;;;;;0.10;0.10;;;;;;;9.88;70.98;99026.19;6250027;22;20026;-73
2022/09/01 01:55:18;;;;;;;0.10;0.10;;;;;;;9.77;71.00;99030.94;6250270;22;20046;-73
2022/09/01 01:57:48;;;;;;;0.10;0.10;;;;;;;9.70;71.30;99025.03;6276182;22;20030;-73
2022/09/01 02:00:20;;;;;;;0.10;0.10;;;;;;;9.64;71.49;99042.53;6226361;22;20474;-73
2022/09/01 02:02:51;;;;;;;0.28;0.10;;;;;;;9.67;71.84;99033.75;6268490;22;20019;-73
2022/09/01 02:05:20;;;;;;;0.10;0.10;;;;;;;9.75;71.77;99030.41;6251712;22;20083;-73
2022/09/01 02:07:48;;;;;;;0.10;0.10;;;;;;;9.87;71.27;99037.41;6275405;22;20024;-73
2022/09/01 02:10:15;;;;;;;0.10;0.10;;;;;;;9.93;70.18;99036.25;6241966;22;20026;-73
2022/09/01 02:12:42;;;;;;;0.10;0.10;;;;;;;9.97;70.48;99036.50;6250903;22;20019;-73
2022/09/01 02:15:11;;;;;;;0.10;0.10;;;;;;;10.00;70.47;99036.72;6279606;22;20024;-73
2022/09/01 02:17:41;;;;;;;0.10;0.10;;;;;;;10.05;70.10;99042.13;6250550;22;20019;-73
2022/09/01 02:20:09;;;;;;;0.52;0.13;;;;;;;10.12;69.68;99038.22;6251527;22;20023;-73
2022/09/01 02:22:36;;;;;;;0.10;0.10;;;;;;;10.17;69.58;99046.38;6213895;22;20447;-68
2022/09/01 02:25:03;;;;;;;0.43;0.10;;;;;;;10.07;69.96;99044.59;6251598;22;20020;-69
2022/09/01 02:27:32;;;;;;;;;;;;;;;10.01;69.84;99046.56;6215070;22;20030;-69
2022/09/01 02:29:59;;;;;;;0.20;0.10;;;;;;;9.90;70.37;99037.63;6214250;22;20369;-69
2022/09/01 02:32:25;;;;;;;0.50;0.10;;;;;;;9.82;70.05;99037.44;6267516;22;20291;-69
2022/09/01 02:34:52;;;;;;;0.43;0.10;;;;;;;9.69;70.53;99033.47;6227806;22;20456;-69
2022/09/01 02:37:24;;;;;;;0.10;0.10;;;;;;;9.62;70.60;99042.00;6216660;22;20023;-69
2022/09/01 02:39:52;;;;;;;0.30;0.15;;;;;;;9.59;70.87;99035.19;6278959;22;20030;-69
2022/09/01 02:42:25;;;;;;;;;;;;;;;9.54;71.29;99039.91;6242173;22;20015;-69
2022/09/01 02:44:52;;;;;;;0.10;0.10;;;;;;;9.44;71.15;99030.69;6251805;22;19925;-68
2022/09/01 02:47:19;;;;;;;0.10;0.10;;;;;;;9.34;71.17;99039.78;6249967;22;20380;-69
2022/09/01 02:49:45;;;;;;;0.10;0.10;;;;;;;9.27;71.85;99041.22;6238432;22;20024;-69
2022/09/01 02:52:16;;;;;;;0.10;0.10;;;;;;;9.22;72.16;99036.59;6276039;22;20101;-69
2022/09/01 02:54:45;;;;;;;0.10;0.10;;;;;;;9.18;72.04;99038.28;6241497;22;20452;-69
2022/09/01 02:57:12;;;;;;;0.10;0.10;;;;;;;9.26;72.16;99048.56;6240369;22;20384;-73
2022/09/01 02:59:38;;;;;;;0.10;0.10;;;;;;;9.19;72.11;99043.44;6278097;22;20463;-72
2022/09/01 03:02:07;;;;;;;0.00;0.00;;;;;;;9.19;72.38;99048.88;6270607;22;20541;-73
2022/09/01 03:04:34;;;;;;;0.10;0.10;;;;;;;9.21;71.90;99046.72;6249636;22;20024;-73
2022/09/01 03:07:00;;;;;;;0.10;0.10;;;;;;;9.22;71.90;99055.69;6188902;22;20046;-73
2022/09/01 03:09:28;;;;;;;0.10;0.10;;;;;;;9.25;71.49;99038.75;6238218;22;20370;-73
2022/09/01 03:11:55;;;;;;;0.10;0.10;;;;;;;9.24;71.66;99052.69;6217332;22;20026;-69
2022/09/01 03:14:24;;;;;;;0.10;0.10;;;;;;;9.23;71.54;99046.41;6249485;22;20019;-69
2022/09/01 03:16:52;;;;;;;0.10;0.10;;;;;;;9.24;71.64;99042.59;6277450;22;20015;-68
2022/09/01 03:19:19;;;;;;;0.10;0.10;;;;;;;9.24;70.89;99050.78;6250061;22;20072;-70
2022/09/01 03:21:46;;;;;;;0.10;0.10;;;;;;;9.25;71.06;99038.75;6225665;22;20023;-69
2022/09/01 03:24:17;;;;;;;0.10;0.10;;;;;;;9.31;70.92;99042.25;6250742;22;20023;-69
2022/09/01 03:26:46;;;;;;;0.10;0.10;;;;;;;9.34;70.78;99044.41;6252112;22;20019;-69
2022/09/01 03:29:13;;;;;;;0.10;0.10;;;;;;;9.37;70.92;99038.41;6249209;22;20069;-69
2022/09/01 03:31:39;;;;;;;0.10;0.10;;;;;;;9.47;69.68;99029.31;6241737;22;20567;-69
2022/09/01 03:34:09;;;;;;;0.10;0.10;;;;;;;9.53;69.72;99039.09;6270045;22;20023;-69
2022/09/01 03:36:48;;;;;;;0.10;0.10;;;;;;;9.74;69.48;99047.06;6193134;22;20022;-69
2022/09/01 03:39:17;;;;;;;0.10;0.10;;;;;;;9.86;69.43;99046.72;6249288;22;20118;-69
2022/09/01 03:41:44;;;;;;;0.10;0.10;;;;;;;9.90;68.82;99040.34;6264265;22;20424;-69
2022/09/01 03:44:13;;;;;;;0.10;0.10;;;;;;;9.98;68.96;99058.03;6248542;22;20019;-69
2022/09/01 03:46:39;;;;;;;0.10;0.10;;;;;;;9.99;67.93;99051.50;6240390;22;20402;-69
2022/09/01 03:49:06;;;;;;;0.10;0.10;;;;;;;10.01;68.43;99057.47;6239473;22;20019;-69
2022/09/01 03:51:37;;;;;;;0.10;0.10;;;;;;;10.05;68.16;99047.59;6242711;22;20016;-69
2022/09/01 03:54:04;;;;;;;0.10;0.10;;;;;;;10.10;67.38;99049.47;6240970;22;20023;-69
2022/09/01 03:56:30;;;;;;;0.57;0.10;;;;;;;10.05;67.77;99036.66;6237458;22;20038;-69
2022/09/01 03:59:00;;;;;;;0.15;0.10;;;;;;;10.02;67.08;99056.38;6236562;22;20028;-69
2022/09/01 04:01:30;;;;;;;0.10;0.10;;;;;;;9.98;65.54;99052.56;6215488;22;20584;-68
2022/09/01 04:03:56;;;;;;;0.10;0.10;;;;;;;9.99;66.65;99050.66;6239082;22;20030;-69
2022/09/01 04:06:26;;;;;;;0.10;0.10;;;;;;;9.98;65.87;99047.09;6212973;22;20047;-69
2022/09/01 04:09:01;;;;;;;0.10;0.10;;;;;;;10.05;66.21;99046.75;6212181;22;20016;-69
2022/09/01 04:11:28;;;;;;;0.10;0.10;;;;;;;9.97;66.03;99034.56;6241580;22;20023;-69
2022/09/01 04:13:54;;;;;;;0.10;0.10;;;;;;;9.96;66.22;99032.94;6250246;22;20019;-69
2022/09/01 04:19:19;;;;;;;0.20;0.20;;;;;;;9.97;65.96;99040.03;6212190;22;20023;-73
2022/09/01 04:21:49;;;;;;;0.10;0.10;;;;;;;9.97;64.67;99053.66;6279044;22;20031;-73
2022/09/01 04:24:15;;;;;;;0.10;0.10;;;;;;;9.92;64.84;99043.63;6251425;22;20742;-73
2022/09/01 04:26:45;;;;;;;0.10;0.10;;;;;;;9.95;64.12;99041.44;6242784;22;20027;-73
2022/09/01 04:29:12;;;;;;;0.10;0.10;;;;;;;9.97;63.55;99050.13;6238129;22;20078;-73
2022/09/01 04:31:41;;;;;;;0.47;0.10;;;;;;;10.00;63.81;99050.38;6237242;22;20074;-72
2022/09/01 04:34:13;;;;;;;0.10;0.10;;;;;;;10.06;63.37;99054.69;6223193;22;20023;-73
2022/09/01 04:36:43;;;;;;;0.10;0.10;;;;;;;10.14;62.04;99036.00;6239996;22;20026;-73
2022/09/01 04:39:11;;;;;;;0.20;0.10;;;;;;;10.16;61.25;99042.03;6230072;22;20102;-73
2022/09/01 04:41:41;;;;;;;0.10;0.10;;;;;;;10.13;61.01;99048.03;6229760;22;20531;-72
2022/09/01 04:44:08;;;;;;;0.10;0.10;;;;;;;10.17;61.45;99051.84;6242877;22;20455;-72
2022/09/01 04:46:41;;;;;;;0.45;0.20;;;;;;;10.18;61.74;99056.22;6246637;22;20031;-72
2022/09/01 04:49:10;;;;;;;0.10;0.10;;;;;;;10.04;62.47;99059.63;6211332;22;20094;-73
2022/09/01 04:51:38;;;;;;;0.20;0.10;;;;;;;10.06;63.04;99062.88;6236441;22;20485;-73
2022/09/01 04:54:08;;;;;;;0.10;0.10;;;;;;;10.04;63.67;99059.63;6236712;22;20094;-72
2022/09/01 04:56:35;;;;;;;0.10;0.10;;;;;;;10.11;64.34;99059.28;6276142;22;20418;-73
2022/09/01 04:59:09;;;;;;;0.35;0.20;;;;;;;10.19;64.45;99060.56;6240836;22;20023;-69
2022/09/01 05:01:45;;;;;;;0.10;0.10;;;;;;;10.25;62.91;99075.78;6247318;22;20484;-69
2022/09/01 05:04:17;;;;;;;0.13;0.13;;;;;;;10.18;62.62;99059.72;6246773;22;20367;-69
2022/09/01 05:06:47;;;;;;;0.10;0.10;;;;;;;10.25;62.17;99061.31;6247909;22;20463;-69
2022/09/01 05:09:16;;;;;;;0.80;0.20;;;;;;;10.30;61.91;99062.09;6265699;22;20019;-73
2022/09/01 05:12:15;;;;;;;0.10;0.10;;;;;;;10.24;60.51;99070.63;6247571;22;20451;-69
2022/09/01 05:14:45;;;;;;;0.10;0.10;;;;;;;10.16;60.08;99069.34;6212757;22;20354;-73
2022/09/01 05:17:13;;;;;;;0.00;0.00;;;;;;;10.13;60.48;99078.09;6205626;22;20071;-73
2022/09/01 05:19:42;;;;;;;0.10;0.10;;;;;;;10.10;60.80;99075.94;6250823;22;20359;-69
2022/09/01 05:22:09;;;;;;;0.10;0.10;;;;;;;10.13;60.79;99069.91;6235204;22;20054;-70
2022/09/01 05:24:40;;;;;;;0.20;0.20;;;;;;;10.23;60.24;99069.00;6222032;22;20024;-69
2022/09/01 05:27:07;;;;;;;0.50;0.20;;;;;;;10.29;60.20;99068.63;6194480;22;20028;-69
2022/09/01 05:29:37;;;;;;;0.52;0.20;;;;;;;10.32;59.40;99068.06;6230288;22;20028;-69
2022/09/01 05:32:08;;;;;;;0.20;0.15;;;;;;;10.31;59.01;99077.38;6223996;22;20107;-69
2022/09/01 05:34:37;;;;;;;0.20;0.20;;;;;;;10.33;59.00;99064.22;6240531;22;20043;-69
2022/09/01 05:37:07;;;;;;;0.15;0.15;;;;;;;10.38;58.52;99062.53;6227417;22;20023;-69
2022/09/01 05:39:36;;;;;;;0.10;0.10;;;;;;;10.44;58.24;99077.78;6232803;22;20022;-70
2022/09/01 05:42:07;;;;;;;0.22;0.20;;;;;;;10.41;58.11;99071.00;6240649;22;20540;-69
2022/09/01 05:44:34;;;;;;;0.10;0.10;;;;;;;10.48;57.59;99076.91;6252040;22;20340;-68
2022/09/01 05:47:02;;;;;;;0.10;0.10;;;;;;;10.43;57.91;99074.25;6240690;22;20032;-69
2022/09/01 05:49:31;;;;;;;0.32;0.25;;;;;;;10.48;58.80;99079.66;6241429;22;20355;-69
2022/09/01 05:52:01;;;;;;;0.20;0.20;;;;;;;10.61;58.94;99078.13;6242098;22;20123;-69
2022/09/01 05:54:31;;;;;;;0.20;0.10;;;;;;;10.63;57.21;99086.03;6251199;22;20112;-69
2022/09/01 05:56:58;;;;;;;0.10;0.10;;;;;;;10.63;55.72;99075.09;6241788;22;20026;-69
2022/09/01 05:59:30;;;;;;;0.20;0.13;;;;;;;10.55;56.42;99073.81;6240031;22;20027;-69
2022/09/01 06:02:13;;;;;;;0.10;0.10;;;;;;;10.65;55.98;99086.53;6249657;22;20024;-69
2022/09/01 06:04:42;;;;;;;0.75;0.20;;;;;;;10.55;56.26;99081.22;6253057;22;20026;-69
2022/09/01 06:07:16;;;;;;;0.10;0.10;;;;;;;10.57;56.97;99082.53;6253002;22;20028;-69
2022/09/01 06:09:48;;;;;;;0.40;0.30;;;;;;;10.64;56.62;99074.00;6250287;22;20074;-69
2022/09/01 06:12:17;;;;;;;0.20;0.20;;;;;;;10.74;56.06;99076.59;6242168;22;20044;-69
2022/09/01 06:14:45;;;;;;;0.60;0.20;;;;;;;10.79;56.43;99075.72;6212645;22;20333;-70
2022/09/01 06:17:20;;;;;;;0.35;0.20;;;;;;;10.81;55.63;99073.50;6232220;22;20031;-69
2022/09/01 06:19:47;;;;;;;0.10;0.10;;;;;;;10.73;55.73;99085.09;6242976;22;20020;-69
2022/09/01 06:22:15;;;;;;;;;;;;;;;10.61;55.76;99089.06;6251270;22;20024;-70
2022/09/01 06:24:42;;;;;;;;;;;;;;;10.58;55.56;99077.91;6268758;22;19946;-69
2022/09/01 06:27:09;;;;;;;0.20;0.15;;;;;;;10.59;55.01;99088.53;6251356;22;20235;-70
2022/09/01 06:29:38;;;;;;;0.32;0.20;;;;;;;10.54;55.24;99085.06;6252081;22;20043;-70
2022/09/01 06:32:09;;;;;;;0.20;0.20;;;;;;;10.63;55.19;99089.59;6255559;22;20020;-70
2022/09/01 06:34:38;;;;;;;0.20;0.20;;;;;;;10.80;54.88;99080.09;6255695;22;20015;-71
2022/09/01 06:37:05;;;;;;;0.10;0.10;;;;;;;10.99;53.63;99074.59;6220593;22;20073;-69
2022/09/01 06:39:33;;;;;;;0.10;0.10;;;;;;;11.00;53.70;99078.16;6220600;22;20024;-69
2022/09/01 06:42:01;;;;;;;0.10;0.10;;;;;;;11.14;53.15;99079.06;6270288;22;20106;-70
2022/09/01 06:44:34;;;;;;;0.20;0.20;;;;;;;11.10;53.65;99091.72;6243824;22;20375;-69
2022/09/01 06:47:06;;;;;;;0.63;0.20;;;;;;;11.03;53.12;99086.59;6253555;22;20031;-69
2022/09/01 06:49:35;;;;;;;0.20;0.20;;;;;;;11.09;53.23;99075.59;6255034;22;20209;-69
2022/09/01 06:52:04;;;;;;;0.20;0.20;;;;;;;11.21;52.96;99082.22;6244922;22;20050;-69
2022/09/01 06:54:34;;;;;;;0.13;0.13;;;;;;;11.32;52.44;99088.38;6256230;22;20020;-69
2022/09/01 06:57:02;;;;;;;0.10;0.10;;;;;;;11.25;52.12;99073.44;6244092;22;20290;-69
2022/09/01 06:59:30;;;;;;;0.20;0.20;;;;;;;11.09;53.10;99084.63;6243853;22;20019;-70
2022/09/01 07:02:00;;;;;;;1.02;0.20;;;;;;;11.08;53.74;99080.22;6252404;22;20023;-69
2022/09/01 07:04:38;;;;;;;1.10;0.30;;;;;;;11.09;54.06;99081.06;6243141;22;20382;-69
2022/09/01 07:07:05;;;;;;;0.30;0.10;;;;;;;11.27;53.54;99088.44;6227043;22;20106;-69
2022/09/01 07:09:34;;;;;;;0.28;0.15;;;;;;;11.26;53.74;99095.03;6271185;22;20098;-69
2022/09/01 07:12:27;;;;;;;0.10;0.10;;;;;;;11.17;53.75;99094.09;6265120;22;20106;-70
2022/09/01 07:14:54;;;;;;;0.10;0.10;;;;;;;10.97;54.72;99079.56;6252201;22;20042;-68
2022/09/01 07:17:23;;;;;;;0.10;0.10;;;;;;;10.97;55.38;99095.19;6191558;22;20023;-69
2022/09/01 07:19:49;;;;;;;0.10;0.10;;;;;;;10.94;55.91;99090.31;6253011;22;20503;-69
2022/09/01 07:22:15;;;;;;;0.10;0.10;;;;;;;10.95;55.59;99097.41;6271905;22;20019;-69
2022/09/01 07:24:45;;;;;;;0.20;0.20;;;;;;;10.96;55.60;99107.22;6244971;22;20015;-69
2022/09/01 07:27:34;;;;;;;0.15;0.15;;;;;;;11.01;55.93;99098.94;6269646;22;20023;-69
2022/09/01 07:30:02;;;;;;;0.75;0.20;;;;;;;11.03;55.68;99081.13;6254261;22;20019;-69
2022/09/01 07:32:30;;;;;;;0.13;0.13;;;;;;;11.01;54.58;99086.09;6245148;22;20065;-70
2022/09/01 07:34:57;;;;;;;0.20;0.20;;;;;;;10.98;55.74;99094.06;6244047;22;20030;-70
2022/09/01 07:37:23;;;;;;;0.10;0.10;;;;;;;11.11;55.43;99098.81;6253365;22;20237;-69
2022/09/01 07:39:50;;;;;;;0.45;0.20;;;;;;;11.03;55.88;99089.34;6243851;22;20016;-69
2022/09/01 07:42:33;;;;;;;0.65;0.30;;;;;;;11.28;55.83;99097.47;6219575;22;20019;-70
2022/09/01 07:45:10;;;;;;;0.38;0.20;;;;;;;11.52;55.57;99089.16;6255559;22;20065;-70
2022/09/01 07:47:46;;;;;;;0.10;0.10;;;;;;;11.60;54.50;99088.47;6244999;22;20348;-70
2022/09/01 07:50:14;;;;;;;;;;;;;;;11.46;54.73;99093.06;6244130;22;20058;-70
2022/09/01 07:52:42;;;;;;;0.10;0.10;;;;;;;11.45;55.44;99088.72;6242375;22;19950;-68
2022/09/01 07:55:11;;;;;;;0.20;0.20;;;;;;;11.41;54.69;99091.25;6244588;22;20020;-70
2022/09/01 07:57:39;;;;;;;0.20;0.20;;;;;;;11.42;54.42;99098.34;6219244;22;20042;-69
2022/09/01 08:00:07;;;;;;;0.30;0.30;;;;;;;11.44;54.39;99098.03;6281905;22;20015;-69
2022/09/01 08:02:39;;;;;;;0.20;0.20;;;;;;;11.60;53.41;99102.16;6281289;22;20027;-69
2022/09/01 08:05:10;;;;;;;0.20;0.20;;;;;;;11.55;53.28;99088.56;6254443;22;20015;-69
2022/09/01 08:07:36;;;;;;;0.20;0.20;;;;;;;11.60;53.50;99104.91;6254656;22;20027;-69
2022/09/01 08:10:04;;;;;;;0.20;0.20;;;;;;;11.49;53.82;99104.25;6218213;22;20015;-68
2022/09/01 08:12:33;;;;;;;0.38;0.30;;;;;;;11.45;53.83;99084.06;6270700;22;20096;-69
2022/09/01 08:15:01;;;;;;;0.13;0.13;;;;;;;11.52;53.78;99091.06;6218480;22;20024;-69
2022/09/01 08:17:29;;;;;;;0.20;0.20;;;;;;;11.57;53.07;99093.75;6254580;22;20027;-69
2022/09/01 08:19:57;;;;;;;0.30;0.30;;;;;;;11.71;53.30;99088.31;6193627;22;20030;-69
2022/09/01 08:22:48;;;;;;;0.20;0.20;;;;;;;11.86;52.01;99095.44;6250707;22;20024;-69
2022/09/01 08:25:18;;;;;;;0.30;0.30;;;;;;;12.13;51.00;99097.47;6253297;22;20043;-69
2022/09/01 08:27:44;;;;;;;0.75;0.47;;;;;;;12.40;50.88;99087.63;6251931;22;20114;-69
2022/09/01 08:30:12;;;;;;;0.93;0.40;;;;;;;12.47;50.36;99088.03;6251792;22;20191;-69
2022/09/01 08:32:40;;;;;;;0.70;0.50;;;;;;;12.62;49.38;99081.41;6245646;22;20026;-69
2022/09/01 08:35:08;;;;;;;0.28;0.20;;;;;;;12.47;48.98;99085.28;6253995;22;20051;-69
2022/09/01 08:37:35;;;;;;;0.20;0.20;;;;;;;12.14;49.41;99101.00;6268247;22;20526;-69
2022/09/01 08:40:03;;;;;;;0.65;0.30;;;;;;;11.83;50.33;99110.56;6280173;22;20483;-68
2022/09/01 08:42:43;;;;;;;0.20;0.20;;;;;;;11.74;50.38;99093.19;6245237;22;20095;-69
2022/09/01 08:45:14;;;;;;;0.20;0.20;;;;;;;11.69;50.64;99094.06;6281302;22;20089;-69
2022/09/01 08:47:41;;;;;;;0.22;0.22;;;;;;;11.65;50.95;99103.22;6218976;22;20074;-69
2022/09/01 08:50:08;;;;;;;0.20;0.20;;;;;;;11.68;50.56;99105.34;6251400;22;20486;-69
2022/09/01 08:53:06;;;;;;;0.20;0.20;;;;;;;11.49;51.23;99103.44;6242981;22;20110;-69
2022/09/01 08:55:40;;;;;;;0.38;0.28;;;;;;;11.58;51.30;99109.84;6193751;22;20069;-69
2022/09/01 08:58:16;;;;;;;0.10;0.10;;;;;;;11.62;50.90;99101.88;6253400;22;20268;-69
2022/09/01 09:01:07;;;;;;;0.20;0.20;;;;;;;11.51;50.70;99103.97;6280459;22;20454;-69
2022/09/01 09:03:41;;;;;;;0.25;0.20;;;;;;;11.49;51.45;99115.19;6281042;22;20031;-69
2022/09/01 09:06:14;;;;;;;0.20;0.20;;;;;;;11.61;50.90;99105.72;6253695;22;20019;-69
2022/09/01 09:08:51;;;;;;;0.30;0.30;;;;;;;11.78;51.10;99114.19;6243258;22;20344;-69
2022/09/01 09:11:44;;;;;;;0.30;0.30;;;;;;;12.00;49.29;99109.97;6280073;22;20042;-68
2022/09/01 09:14:19;;;;;;;0.20;0.20;;;;;;;11.84;49.63;99123.13;6269924;22;20019;-69
2022/09/01 09:16:48;;;;;;;0.52;0.22;;;;;;;11.75;49.82;99125.75;6242650;22;20046;-69
2022/09/01 09:19:21;;;;;;;0.25;0.25;;;;;;;11.88;49.79;99120.63;6281182;22;20016;-69
2022/09/01 09:21:49;;;;;;;0.63;0.20;;;;;;;12.00;49.75;99120.94;6240817;22;20019;-69
2022/09/01 09:24:23;;;;;;;0.20;0.20;;;;;;;12.17;49.67;99134.09;6278213;22;20020;-69
2022/09/01 09:26:52;;;;;;;0.20;0.20;;;;;;;12.22;49.36;99138.69;6279101;22;20015;-69
2022/09/01 09:29:20;;;;;;;0.20;0.20;;;;;;;12.14;49.84;99137.44;6280860;22;20019;-69
2022/09/01 09:31:48;;;;;;;0.20;0.20;;;;;;;12.13;49.29;99138.56;6268443;22;20106;-69
2022/09/01 09:34:31;;;;;;;0.15;0.15;;;;;;;11.77;49.93;99142.69;6244099;22;20028;-69
2022/09/01 09:37:01;;;;;;;0.40;0.30;;;;;;;11.62;50.90;99145.69;6270456;22;20031;-69
2022/09/01 09:39:27;;;;;;;0.20;0.20;;;;;;;11.65;51.17;99145.06;6270285;22;20049;-69
2022/09/01 09:42:08;;;;;;;0.20;0.20;;;;;;;11.63;51.14;99144.56;6269367;22;20015;-70
2022/09/01 09:44:42;;;;;;;0.20;0.20;;;;;;;11.70;50.77;99157.88;6254299;22;20455;-69
2022/09/01 09:47:09;;;;;;;0.10;0.10;;;;;;;11.61;51.19;99150.31;6243965;22;20498;-71
2022/09/01 09:49:35;;;;;;;0.20;0.20;;;;;;;11.52;50.97;99156.78;6265336;22;20034;-69
2022/09/01 09:52:13;;;;;;;0.20;0.20;;;;;;;11.51;51.88;99150.50;6266239;22;20372;-69
2022/09/01 09:54:56;;;;;;;0.10;0.10;;;;;;;11.59;51.46;99155.28;6233880;22;20046;-73
2022/09/01 09:57:24;;;;;;;0.30;0.30;;;;;;;11.70;51.44;99152.41;6199424;22;20058;-73
2022/09/01 09:59:58;;;;;;;0.22;0.22;;;;;;;11.88;51.48;99159.78;6220808;22;20521;-73
2022/09/01 10:02:30;;;;;;;0.20;0.20;;;;;;;12.15;50.25;99158.25;6275982;22;20039;-73
2022/09/01 10:04:57;;;;;;;0.20;0.20;;;;;;;12.11;50.37;99151.75;6239894;22;20047;-73
2022/09/01 10:07:28;;;;;;;0.20;0.20;;;;;;;12.12;50.37;99160.78;6270636;22;20026;-73
2022/09/01 10:09:56;;;;;;;0.32;0.20;;;;;;;12.03;50.30;99164.22;6191720;22;20992;-73
2022/09/01 10:12:24;;;;;;;0.20;0.20;;;;;;;11.82;50.24;99155.50;6192756;22;20069;-73
2022/09/01 10:14:54;;;;;;;0.20;0.20;;;;;;;11.76;49.71;99175.84;6271756;22;20024;-72
2022/09/01 10:17:24;;;;;;;0.55;0.20;;;;;;;11.66;49.86;99176.81;6251262;22;20015;-73
2022/09/01 10:19:55;;;;;;;0.32;0.20;;;;;;;11.60;50.23;99175.28;6251394;22;20564;-73
2022/09/01 10:22:22;;;;;;;0.15;0.15;;;;;;;11.74;49.46;99165.22;6278209;22;20024;-73
2022/09/01 10:24:48;;;;;;;0.10;0.10;;;;;;;11.74;49.24;99176.16;6264272;22;20020;-74
2022/09/01 10:27:19;;;;;;;0.10;0.10;;;;;;;11.76;49.32;99171.19;6269236;22;20043;-74
2022/09/01 10:29:50;;;;;;;0.32;0.20;;;;;;;11.80;49.27;99174.16;6242925;22;20024;-69
2022/09/01 10:32:23;;;;;;;0.20;0.20;;;;;;;11.91;49.29;99181.06;6275288;22;20019;-69
2022/09/01 10:34:52;;;;;;;0.20;0.20;;;;;;;12.14;49.18;99166.78;6263108;22;20028;-69
2022/09/01 10:37:19;;;;;;;0.22;0.20;;;;;;;12.22;48.11;99170.75;6263839;22;20023;-73
2022/09/01 10:40:18;;;;;;;0.17;0.17;;;;;;;11.96;48.73;99179.38;6213443;22;20027;-73
2022/09/01 10:42:52;;;;;;;0.20;0.20;;;;;;;12.04;49.06;99184.19;6253712;22;20084;-73
2022/09/01 10:45:30;;;;;;;0.30;0.30;;;;;;;12.23;48.96;99169.63;6228965;22;20029;-73
2022/09/01 10:48:26;;;;;;;0.20;0.20;;;;;;;12.40;48.25;99180.81;6232787;22;20110;-74
2022/09/01 10:50:54;;;;;;;0.55;0.30;;;;;;;12.46;48.18;99178.81;6278960;22;20024;-73
2022/09/01 10:53:37;;;;;;;0.20;0.20;;;;;;;12.74;47.82;99176.91;6241526;22;20042;-73
2022/09/01 10:56:09;;;;;;;0.20;0.20;;;;;;;12.79;47.89;99180.66;6216953;22;20337;-73
2022/09/01 10:58:47;;;;;;;0.47;0.30;;;;;;;12.76;47.95;99177.44;6236405;22;20408;-73
2022/09/01 11:01:15;;;;;;;0.52;0.25;;;;;;;12.66;47.20;99193.28;6247300;22;20020;-73
2022/09/01 11:03:51;;;;;;;0.20;0.20;;;;;;;12.51;47.68;99178.72;6280742;22;20019;-73
2022/09/01 11:06:44;;;;;;;0.20;0.20;;;;;;;12.52;47.82;99187.75;6259204;22;20185;-73
2022/09/01 11:09:21;;;;;;;0.20;0.20;;;;;;;12.73;46.85;99183.53;6275609;22;20015;-73
2022/09/01 11:12:00;;;;;;;0.20;0.20;;;;;;;12.67;46.83;99179.25;6214557;22;20464;-73
2022/09/01 11:14:26;;;;;;;0.20;0.20;;;;;;;12.53;46.76;99192.94;6278690;22;20091;-74
2022/09/01 11:17:22;;;;;;;0.20;0.20;;;;;;;12.37;46.71;99191.59;6279763;22;20030;-74
2022/09/01 11:19:59;;;;;;;0.20;0.20;;;;;;;12.13;47.60;99176.94;6205566;22;20026;-73
2022/09/01 11:22:31;;;;;;;0.43;0.20;;;;;;;12.11;47.40;99186.56;6270460;22;20023;-73
2022/09/01 11:25:33;;;;;;;0.35;0.20;;;;;;;12.17;47.88;99193.56;6271828;22;20027;-74
2022/09/01 11:28:31;;;;;;;0.20;0.20;;;;;;;12.06;48.29;99190.19;6238527;22;20035;-73
2022/09/01 11:31:00;;;;;;;0.20;0.20;;;;;;;12.23;48.42;99175.94;6268546;22;20101;-73
2022/09/01 11:33:49;;;;;;;0.30;0.30;;;;;;;12.51;47.66;99186.13;6264306;22;20521;-73
2022/09/01 11:36:28;;;;;;;0.20;0.20;;;;;;;12.84;46.56;99186.88;6271648;22;20027;-73
2022/09/01 11:39:03;;;;;;;0.30;0.30;;;;;;;12.84;47.01;99173.16;6274155;22;20046;-70
2022/09/01 11:41:40;;;;;;;1.35;0.30;;;;;;;13.04;45.73;99187.56;6263751;22;20093;-74
2022/09/01 11:44:14;;;;;;;0.30;0.30;;;;;;;13.18;45.83;99169.16;6268357;22;20141;-75
2022/09/01 11:46:42;;;;;;;0.32;0.32;;;;;;;13.52;44.60;99153.34;6269956;22;20028;-73
2022/09/01 11:49:29;;;;;;;0.30;0.30;;;;;;;13.47;44.24;99162.50;6251122;22;20129;-74
2022/09/01 11:51:56;;;;;;;0.20;0.20;;;;;;;13.34;44.47;99155.09;6265203;22;20023;-73
2022/09/01 11:54:23;;;;;;;0.30;0.30;;;;;;;13.17;45.14;99167.53;6235975;22;20325;-72
2022/09/01 11:56:49;;;;;;;0.30;0.30;;;;;;;13.10;44.77;99169.06;6265790;22;20029;-73
2022/09/01 11:59:30;;;;;;;0.30;0.30;;;;;;;13.83;44.23;99165.53;6273484;22;20486;-73